Time;durP1;ratioP1;P1;durP2;ratioP2;P2;SDS_P1;SDS_P2;PMS_P1;PMS_P2;Temp;Humidity;BMP_temperature;BMP_pressure;BME280_temperature;BME280_humidity;BME280_pressure;Samples;Min_cycle;Max_cycle;Signal;HPM_P1;HPM_P2
2021/03/19 00:00:31;;;;;;;10.00;8.63;;;;;;;;;;2091673;28;20179;-60
2021/03/19 00:01:31;;;;;;;9.23;8.30;;;;;;;;;;2092582;28;20691;-60
2021/03/19 00:02:32;;;;;;;10.27;8.90;;;;;;;;;;2091726;28;20174;-59
2021/03/19 00:03:32;;;;;;;10.80;9.63;;;;;;;;;;2091235;28;20183;-61
2021/03/19 00:04:32;;;;;;;9.67;8.83;;;;;;;;;;2094348;28;20193;-61
2021/03/19 00:05:32;;;;;;;11.23;9.07;;;;;;;;;;2092718;28;20189;-62
2021/03/19 00:06:33;;;;;;;9.60;8.60;;;;;;;;;;2094211;28;20195;-61
2021/03/19 00:07:49;;;;;;;11.87;8.90;;;;;;;;;;2093611;28;20636;-60
2021/03/19 00:08:49;;;;;;;9.00;8.03;;;;;;;;;;2088833;28;20180;-62
2021/03/19 00:09:51;;;;;;;9.40;8.50;;;;;;;;;;2096913;28;20400;-60
2021/03/19 00:10:51;;;;;;;9.87;8.70;;;;;;;;;;2090902;28;20171;-63
2021/03/19 00:11:52;;;;;;;10.17;9.13;;;;;;;;;;2096660;28;20777;-62
2021/03/19 00:12:53;;;;;;;9.57;8.23;;;;;;;;;;2091391;28;20167;-62
2021/03/19 00:13:54;;;;;;;9.70;8.77;;;;;;;;;;2088794;28;20904;-60
2021/03/19 00:14:54;;;;;;;9.40;8.07;;;;;;;;;;2089587;28;20232;-60
2021/03/19 00:15:54;;;;;;;10.20;9.13;;;;;;;;;;2088257;28;20186;-60
2021/03/19 00:16:55;;;;;;;9.00;8.00;;;;;;;;;;2097328;28;20294;-61
2021/03/19 00:17:55;;;;;;;8.90;7.90;;;;;;;;;;2088947;28;20210;-62
2021/03/19 00:18:55;;;;;;;10.37;8.97;;;;;;;;;;2091243;28;20256;-57
2021/03/19 00:19:56;;;;;;;10.57;8.73;;;;;;;;;;2097185;28;20677;-59
2021/03/19 00:20:56;;;;;;;9.60;8.27;;;;;;;;;;2089699;28;20182;-58
2021/03/19 00:21:56;;;;;;;10.70;9.07;;;;;;;;;;2096292;28;20209;-63
2021/03/19 00:22:57;;;;;;;9.57;8.67;;;;;;;;;;2088949;28;20206;-60
2021/03/19 00:23:57;;;;;;;9.00;8.20;;;;;;;;;;2089080;28;20628;-59
2021/03/19 00:24:57;;;;;;;10.27;9.20;;;;;;;;;;2096863;28;20179;-61
2021/03/19 00:25:58;;;;;;;11.73;9.50;;;;;;;;;;2089542;28;20179;-60
2021/03/19 00:26:58;;;;;;;10.83;8.97;;;;;;;;;;2089382;28;20248;-59
2021/03/19 00:27:59;;;;;;;11.53;8.70;;;;;;;;;;2089453;28;20614;-60
2021/03/19 00:28:59;;;;;;;10.17;9.10;;;;;;;;;;2087518;28;20197;-61
2021/03/19 00:29:59;;;;;;;10.63;9.03;;;;;;;;;;2089689;28;20536;-58
2021/03/19 00:31:00;;;;;;;8.77;7.87;;;;;;;;;;2089529;28;20171;-61
2021/03/19 00:32:00;;;;;;;10.87;9.10;;;;;;;;;;2088446;28;20181;-60
2021/03/19 00:33:01;;;;;;;10.33;9.30;;;;;;;;;;2088762;28;20620;-60
2021/03/19 00:34:01;;;;;;;11.07;9.40;;;;;;;;;;2088546;28;20244;-60
2021/03/19 00:35:02;;;;;;;12.07;8.93;;;;;;;;;;2088990;28;20180;-62
2021/03/19 00:36:03;;;;;;;12.00;8.83;;;;;;;;;;2089248;28;20175;-58
2021/03/19 00:37:03;;;;;;;10.27;9.17;;;;;;;;;;2097244;28;20493;-60
2021/03/19 00:38:04;;;;;;;12.37;8.97;;;;;;;;;;2084885;28;20176;-57
2021/03/19 00:39:04;;;;;;;12.70;9.33;;;;;;;;;;2097028;28;20186;-60
2021/03/19 00:40:05;;;;;;;10.93;9.63;;;;;;;;;;2089607;28;20237;-62
2021/03/19 00:41:05;;;;;;;14.17;10.17;;;;;;;;;;2094797;28;20175;-59
2021/03/19 00:42:06;;;;;;;16.07;13.13;;;;;;;;;;2096482;28;20264;-60
2021/03/19 00:43:07;;;;;;;19.30;16.40;;;;;;;;;;2086617;28;20654;-58
2021/03/19 00:44:07;;;;;;;12.97;11.60;;;;;;;;;;2089572;28;20168;-60
2021/03/19 00:45:08;;;;;;;14.87;12.93;;;;;;;;;;2089714;28;20397;-59
2021/03/19 00:46:08;;;;;;;18.20;15.43;;;;;;;;;;2090275;28;20182;-61
2021/03/19 00:47:09;;;;;;;16.57;13.90;;;;;;;;;;2090522;28;20543;-63
2021/03/19 00:48:09;;;;;;;14.03;12.63;;;;;;;;;;2090398;28;20170;-63
2021/03/19 00:49:09;;;;;;;22.43;18.13;;;;;;;;;;2089687;28;20577;-57
2021/03/19 00:50:12;;;;;;;11.57;10.37;;;;;;;;;;2089118;28;20176;-57
2021/03/19 00:51:12;;;;;;;15.43;12.13;;;;;;;;;;2089009;28;20187;-59
2021/03/19 00:52:13;;;;;;;12.70;11.00;;;;;;;;;;2088761;28;20507;-59
2021/03/19 00:53:13;;;;;;;13.97;10.87;;;;;;;;;;2089008;28;20175;-60
2021/03/19 00:54:13;;;;;;;12.13;10.37;;;;;;;;;;2090607;28;20246;-61
2021/03/19 00:55:14;;;;;;;13.10;10.90;;;;;;;;;;2091810;28;20210;-58
2021/03/19 00:56:14;;;;;;;13.33;10.77;;;;;;;;;;2095675;28;20175;-60
2021/03/19 00:57:14;;;;;;;11.40;10.10;;;;;;;;;;2092645;28;20266;-59
2021/03/19 00:58:14;;;;;;;13.27;10.47;;;;;;;;;;2088031;28;20605;-61
2021/03/19 00:59:15;;;;;;;11.70;10.50;;;;;;;;;;2090428;28;20171;-57
2021/03/19 01:00:16;;;;;;;13.93;10.47;;;;;;;;;;2096709;28;20170;-59
2021/03/19 01:01:16;;;;;;;12.90;10.07;;;;;;;;;;2096337;28;20748;-57
2021/03/19 01:02:16;;;;;;;13.23;10.33;;;;;;;;;;2092527;28;20758;-58
2021/03/19 01:03:17;;;;;;;12.93;10.80;;;;;;;;;;2093851;28;20338;-59
2021/03/19 01:04:18;;;;;;;11.30;9.97;;;;;;;;;;2095225;28;20745;-62
2021/03/19 01:05:22;;;;;;;11.60;10.40;;;;;;;;;;2089343;28;20466;-59
2021/03/19 01:06:23;;;;;;;11.67;9.63;;;;;;;;;;2088320;28;20254;-59
2021/03/19 01:07:23;;;;;;;13.20;10.23;;;;;;;;;;2089712;28;20400;-58
2021/03/19 01:08:23;;;;;;;11.67;10.47;;;;;;;;;;2088924;28;20612;-59
2021/03/19 01:09:24;;;;;;;11.70;10.50;;;;;;;;;;2092085;28;20247;-57
2021/03/19 01:10:26;;;;;;;11.13;10.00;;;;;;;;;;2093154;28;20189;-60
2021/03/19 01:11:27;;;;;;;15.03;11.20;;;;;;;;;;2094364;28;20168;-55
2021/03/19 01:12:27;;;;;;;13.23;10.73;;;;;;;;;;2096107;28;20491;-58
2021/03/19 01:13:28;;;;;;;13.57;10.70;;;;;;;;;;2094048;28;20179;-61
2021/03/19 01:14:28;;;;;;;13.77;11.90;;;;;;;;;;2089982;28;20262;-63
2021/03/19 01:15:29;;;;;;;15.60;11.27;;;;;;;;;;2093352;28;20175;-64
2021/03/19 01:16:30;;;;;;;13.70;12.30;;;;;;;;;;2089625;28;20179;-63
2021/03/19 01:17:31;;;;;;;16.33;13.27;;;;;;;;;;2089441;28;20176;-64
2021/03/19 01:18:31;;;;;;;13.87;12.43;;;;;;;;;;2090650;28;20458;-61
2021/03/19 01:19:31;;;;;;;18.10;12.53;;;;;;;;;;2089569;28;20277;-61
2021/03/19 01:20:32;;;;;;;14.20;12.73;;;;;;;;;;2094639;28;20224;-61
2021/03/19 01:21:32;;;;;;;15.07;12.07;;;;;;;;;;2092898;28;20183;-59
2021/03/19 01:22:32;;;;;;;14.03;11.83;;;;;;;;;;2090081;28;20222;-60
2021/03/19 01:23:33;;;;;;;16.17;12.87;;;;;;;;;;2089566;28;20175;-59
2021/03/19 01:24:33;;;;;;;12.77;11.57;;;;;;;;;;2086513;28;20187;-61
2021/03/19 01:25:33;;;;;;;13.73;11.53;;;;;;;;;;2088776;28;20274;-62
2021/03/19 01:26:33;;;;;;;11.77;10.57;;;;;;;;;;2094089;28;20202;-61
2021/03/19 01:27:34;;;;;;;12.13;10.83;;;;;;;;;;2092309;28;20204;-60
2021/03/19 01:28:34;;;;;;;13.10;11.33;;;;;;;;;;2089401;28;20210;-60
2021/03/19 01:29:35;;;;;;;13.47;12.27;;;;;;;;;;2092090;28;20255;-60
2021/03/19 01:30:36;;;;;;;15.13;12.17;;;;;;;;;;2094548;28;20615;-62
2021/03/19 01:31:37;;;;;;;14.60;12.30;;;;;;;;;;2097914;28;20710;-62
2021/03/19 01:32:37;;;;;;;12.97;11.57;;;;;;;;;;2090361;28;20428;-62
2021/03/19 01:33:37;;;;;;;14.53;11.70;;;;;;;;;;2092550;28;20619;-59
2021/03/19 01:34:38;;;;;;;14.60;12.87;;;;;;;;;;2098704;28;20174;-63
2021/03/19 01:35:39;;;;;;;16.03;12.10;;;;;;;;;;2090589;28;20649;-61
2021/03/19 01:36:40;;;;;;;14.03;11.93;;;;;;;;;;2093661;28;20198;-61
2021/03/19 01:37:41;;;;;;;17.13;13.77;;;;;;;;;;2092852;28;20412;-63
2021/03/19 01:38:41;;;;;;;13.90;12.53;;;;;;;;;;2092447;28;20172;-60
2021/03/19 01:39:41;;;;;;;15.27;12.90;;;;;;;;;;2090871;28;20176;-59
2021/03/19 01:40:43;;;;;;;13.83;11.67;;;;;;;;;;2095727;28;20189;-61
2021/03/19 01:41:47;;;;;;;13.17;11.87;;;;;;;;;;2098937;28;20175;-61
2021/03/19 01:42:53;;;;;;;20.87;12.87;;;;;;;;;;2092761;28;20416;-62
2021/03/19 01:44:04;;;;;;;13.60;12.00;;;;;;;;;;2098568;28;20423;-60
2021/03/19 01:45:05;;;;;;;14.43;11.43;;;;;;;;;;2076918;28;20398;-60
2021/03/19 01:46:24;;;;;;;13.67;12.13;;;;;;;;;;2090303;28;20412;-61
2021/03/19 01:47:42;;;;;;;15.33;12.17;;;;;;;;;;2091532;28;20175;-62
2021/03/19 01:49:01;;;;;;;16.43;11.90;;;;;;;;;;2093052;28;20427;-63
2021/03/19 01:50:21;;;;;;;15.30;11.13;;;;;;;;;;2084927;28;20987;-60
2021/03/19 01:51:39;;;;;;;12.47;10.97;;;;;;;;;;2096591;28;20904;-63
2021/03/19 01:52:58;;;;;;;14.13;11.83;;;;;;;;;;2096636;28;20441;-60
2021/03/19 01:54:17;;;;;;;14.10;12.60;;;;;;;;;;2084884;28;20824;-63
2021/03/19 01:55:36;;;;;;;14.63;12.60;;;;;;;;;;2096477;28;20447;-60
2021/03/19 01:56:55;;;;;;;14.03;12.63;;;;;;;;;;2091618;28;20509;-62
2021/03/19 01:58:14;;;;;;;16.20;11.53;;;;;;;;;;2092636;28;20988;-62
2021/03/19 01:59:33;;;;;;;12.90;11.60;;;;;;;;;;2092626;28;20467;-62
2021/03/19 02:00:51;;;;;;;18.13;12.60;;;;;;;;;;2091099;28;20436;-61
2021/03/19 02:02:11;;;;;;;13.60;11.90;;;;;;;;;;2098129;28;20923;-62
2021/03/19 02:03:30;;;;;;;17.90;12.80;;;;;;;;;;2092026;28;20428;-59
2021/03/19 02:04:48;;;;;;;15.30;11.97;;;;;;;;;;2093482;28;22129;-61
2021/03/19 02:06:07;;;;;;;15.43;12.33;;;;;;;;;;2099953;28;20407;-60
2021/03/19 02:07:26;;;;;;;14.30;12.70;;;;;;;;;;2085636;28;20433;-64
2021/03/19 02:08:45;;;;;;;13.60;12.20;;;;;;;;;;2091884;28;20405;-62
2021/03/19 02:10:04;;;;;;;14.90;11.43;;;;;;;;;;2091596;28;20428;-62
2021/03/19 02:11:23;;;;;;;16.07;11.67;;;;;;;;;;2084708;28;20393;-58
2021/03/19 02:12:42;;;;;;;11.77;10.10;;;;;;;;;;2094201;28;20407;-62
2021/03/19 02:14:00;;;;;;;15.23;11.77;;;;;;;;;;2093079;28;20818;-62
2021/03/19 02:15:19;;;;;;;12.47;11.10;;;;;;;;;;2082821;28;20421;-63
2021/03/19 02:16:38;;;;;;;12.80;10.93;;;;;;;;;;2088213;28;20450;-59
2021/03/19 02:17:57;;;;;;;13.03;11.70;;;;;;;;;;2090628;28;20427;-59
2021/03/19 02:19:16;;;;;;;15.70;11.97;;;;;;;;;;2089614;28;20436;-58
2021/03/19 02:20:35;;;;;;;12.20;10.93;;;;;;;;;;2091701;28;20468;-59
2021/03/19 02:21:54;;;;;;;12.73;11.43;;;;;;;;;;2094307;28;20476;-58
2021/03/19 02:23:13;;;;;;;12.40;10.50;;;;;;;;;;2089637;28;20444;-58
2021/03/19 02:24:31;;;;;;;12.53;11.33;;;;;;;;;;2084197;28;20421;-59
2021/03/19 02:25:50;;;;;;;12.67;9.80;;;;;;;;;;2095212;28;20411;-58
2021/03/19 02:27:09;;;;;;;13.50;10.33;;;;;;;;;;2090059;28;20819;-60
2021/03/19 02:28:28;;;;;;;10.77;9.77;;;;;;;;;;2090616;28;20431;-59
2021/03/19 02:29:48;;;;;;;11.57;9.40;;;;;;;;;;2090426;28;20464;-58
2021/03/19 02:31:07;;;;;;;11.83;9.30;;;;;;;;;;2087956;28;20911;-59
2021/03/19 02:32:15;;;;;;;10.53;9.43;;;;;;;;;;2083854;28;20409;-60
2021/03/19 02:33:16;;;;;;;10.80;9.70;;;;;;;;;;2086870;28;20445;-59
2021/03/19 02:34:16;;;;;;;12.67;9.20;;;;;;;;;;2095135;28;20923;-60
2021/03/19 02:35:21;;;;;;;10.60;9.23;;;;;;;;;;2092838;28;20168;-57
2021/03/19 02:36:23;;;;;;;8.67;7.87;;;;;;;;;;2092040;28;20171;-56
2021/03/19 02:37:25;;;;;;;8.67;7.67;;;;;;;;;;2087494;28;20420;-63
2021/03/19 02:38:26;;;;;;;9.23;8.23;;;;;;;;;;2093872;28;22782;-62
2021/03/19 02:39:26;;;;;;;9.80;8.17;;;;;;;;;;2089384;28;20425;-59
2021/03/19 02:40:27;;;;;;;8.00;7.30;;;;;;;;;;2082982;28;20196;-60
2021/03/19 02:41:27;;;;;;;8.63;7.70;;;;;;;;;;2092996;28;20632;-58
2021/03/19 02:42:29;;;;;;;8.83;7.93;;;;;;;;;;2084733;28;20768;-59
2021/03/19 02:43:29;;;;;;;8.67;7.40;;;;;;;;;;2085337;28;20164;-59
2021/03/19 02:44:30;;;;;;;8.47;7.50;;;;;;;;;;2093672;28;20925;-58
2021/03/19 02:45:30;;;;;;;7.90;7.23;;;;;;;;;;2091082;28;20182;-61
2021/03/19 02:46:31;;;;;;;7.87;7.20;;;;;;;;;;2094464;28;20694;-61
2021/03/19 02:47:31;;;;;;;8.63;7.70;;;;;;;;;;2093948;28;20179;-59
2021/03/19 02:48:32;;;;;;;8.00;7.20;;;;;;;;;;2089434;28;20167;-60
2021/03/19 02:49:32;;;;;;;7.57;6.87;;;;;;;;;;2090565;28;20171;-59
2021/03/19 02:50:32;;;;;;;7.37;6.83;;;;;;;;;;2094838;28;20650;-61
2021/03/19 02:51:32;;;;;;;8.50;6.60;;;;;;;;;;2094331;28;20585;-63
2021/03/19 02:52:34;;;;;;;8.10;7.40;;;;;;;;;;2090632;28;20190;-62
2021/03/19 02:53:36;;;;;;;7.70;6.83;;;;;;;;;;2094574;28;20187;-60
2021/03/19 02:54:37;;;;;;;7.80;6.77;;;;;;;;;;2093720;28;20514;-61
2021/03/19 02:55:37;;;;;;;8.33;7.47;;;;;;;;;;2090211;28;20420;-60
2021/03/19 02:56:37;;;;;;;8.97;8.17;;;;;;;;;;2094402;28;20256;-61
2021/03/19 02:57:37;;;;;;;8.13;7.40;;;;;;;;;;2088243;28;20213;-61
2021/03/19 02:58:38;;;;;;;6.90;6.30;;;;;;;;;;2091007;28;20332;-62
2021/03/19 02:59:38;;;;;;;8.97;7.33;;;;;;;;;;2094455;28;20839;-61
2021/03/19 03:00:38;;;;;;;8.10;7.30;;;;;;;;;;2092695;28;20175;-62
2021/03/19 03:01:39;;;;;;;8.43;7.63;;;;;;;;;;2081476;28;20699;-61
2021/03/19 03:02:39;;;;;;;8.07;7.37;;;;;;;;;;2082730;28;20184;-61
2021/03/19 03:03:40;;;;;;;8.17;7.33;;;;;;;;;;2086566;28;20186;-60
2021/03/19 03:04:40;;;;;;;8.03;7.27;;;;;;;;;;2093395;28;20178;-60
2021/03/19 03:05:40;;;;;;;8.20;6.90;;;;;;;;;;2089235;28;20176;-59
2021/03/19 03:06:42;;;;;;;7.97;7.23;;;;;;;;;;2092444;28;20230;-61
2021/03/19 03:07:43;;;;;;;8.37;7.57;;;;;;;;;;2087223;28;20172;-58
2021/03/19 03:08:43;;;;;;;8.40;7.60;;;;;;;;;;2082771;28;20414;-62
2021/03/19 03:09:43;;;;;;;7.93;7.23;;;;;;;;;;2086081;28;20164;-61
2021/03/19 03:10:44;;;;;;;8.30;7.60;;;;;;;;;;2094814;28;20222;-61
2021/03/19 03:11:45;;;;;;;8.60;7.70;;;;;;;;;;2091634;28;20206;-60
2021/03/19 03:12:45;;;;;;;7.73;6.97;;;;;;;;;;2091250;28;20167;-61
2021/03/19 03:13:45;;;;;;;7.93;6.87;;;;;;;;;;2089889;28;20167;-59
2021/03/19 03:14:46;;;;;;;7.83;7.03;;;;;;;;;;2090470;28;20572;-61
2021/03/19 03:15:46;;;;;;;7.50;6.93;;;;;;;;;;2089277;28;20682;-62
2021/03/19 03:16:47;;;;;;;8.23;7.43;;;;;;;;;;2096324;28;20209;-60
2021/03/19 03:17:48;;;;;;;8.00;7.30;;;;;;;;;;2090748;28;20210;-62
2021/03/19 03:18:48;;;;;;;7.43;6.83;;;;;;;;;;2096578;28;20711;-62
2021/03/19 03:19:48;;;;;;;6.93;6.30;;;;;;;;;;2096673;28;20179;-63
2021/03/19 03:20:51;;;;;;;8.50;7.57;;;;;;;;;;2091083;28;20250;-63
2021/03/19 03:21:52;;;;;;;8.17;7.37;;;;;;;;;;2097484;28;20175;-61
2021/03/19 03:22:52;;;;;;;7.53;6.77;;;;;;;;;;2092812;28;20439;-61
2021/03/19 03:23:53;;;;;;;7.30;6.67;;;;;;;;;;2098816;28;20265;-61
2021/03/19 03:24:53;;;;;;;7.50;6.80;;;;;;;;;;2091744;28;20270;-61
2021/03/19 03:25:53;;;;;;;9.13;6.50;;;;;;;;;;2100204;28;20653;-60
2021/03/19 03:26:53;;;;;;;9.93;6.97;;;;;;;;;;2092653;28;20196;-60
2021/03/19 03:27:54;;;;;;;7.17;6.57;;;;;;;;;;2083863;28;20172;-61
2021/03/19 03:28:55;;;;;;;7.53;6.23;;;;;;;;;;2095038;28;20272;-62
2021/03/19 03:29:55;;;;;;;6.80;6.20;;;;;;;;;;2091277;28;20176;-61
2021/03/19 03:30:57;;;;;;;6.63;6.13;;;;;;;;;;2087830;28;20247;-63
2021/03/19 03:31:57;;;;;;;7.30;6.60;;;;;;;;;;2098219;28;20178;-62
2021/03/19 03:32:58;;;;;;;7.80;6.83;;;;;;;;;;2094262;28;20424;-64
2021/03/19 03:33:58;;;;;;;6.77;6.17;;;;;;;;;;2103911;28;20167;-60
2021/03/19 03:34:58;;;;;;;7.00;6.30;;;;;;;;;;2089939;28;20233;-59
2021/03/19 03:35:59;;;;;;;6.83;6.30;;;;;;;;;;2097660;28;20729;-63
2021/03/19 03:37:00;;;;;;;7.33;6.63;;;;;;;;;;2089150;28;20604;-63
2021/03/19 03:38:02;;;;;;;7.30;6.60;;;;;;;;;;2097915;28;20551;-59
2021/03/19 03:39:04;;;;;;;7.17;6.53;;;;;;;;;;2089211;28;20514;-60
2021/03/19 03:40:06;;;;;;;7.23;6.57;;;;;;;;;;2093233;28;20436;-60
2021/03/19 03:41:08;;;;;;;6.40;5.90;;;;;;;;;;2090818;28;20412;-59
2021/03/19 03:42:08;;;;;;;6.23;5.63;;;;;;;;;;2095122;28;20960;-63
2021/03/19 03:43:11;;;;;;;5.83;5.43;;;;;;;;;;2088402;28;20416;-60
2021/03/19 03:44:13;;;;;;;6.33;5.73;;;;;;;;;;2090540;28;20195;-59
2021/03/19 03:45:14;;;;;;;6.40;5.80;;;;;;;;;;2095285;28;20453;-61
2021/03/19 03:46:17;;;;;;;7.03;6.20;;;;;;;;;;2090879;28;20487;-60
2021/03/19 03:47:17;;;;;;;5.80;5.30;;;;;;;;;;2094645;28;20159;-60
2021/03/19 03:48:19;;;;;;;6.37;5.70;;;;;;;;;;2090767;28;20783;-60
2021/03/19 03:49:19;;;;;;;6.27;5.77;;;;;;;;;;2094037;28;20176;-62
2021/03/19 03:50:22;;;;;;;6.37;5.77;;;;;;;;;;2091737;28;20423;-60
2021/03/19 03:51:22;;;;;;;6.33;5.87;;;;;;;;;;2094676;28;20186;-60
2021/03/19 03:52:23;;;;;;;6.23;5.60;;;;;;;;;;2086250;28;20424;-62
2021/03/19 03:53:24;;;;;;;7.97;5.73;;;;;;;;;;2089225;28;20207;-60
2021/03/19 03:54:24;;;;;;;10.73;5.40;;;;;;;;;;2090360;28;20252;-60
2021/03/19 03:55:24;;;;;;;7.00;5.83;;;;;;;;;;2094617;28;20183;-62
2021/03/19 03:56:26;;;;;;;5.80;5.27;;;;;;;;;;2092093;28;20655;-61
2021/03/19 03:57:26;;;;;;;5.87;5.37;;;;;;;;;;2091734;28;20176;-62
2021/03/19 03:58:27;;;;;;;6.23;5.73;;;;;;;;;;2091268;28;20431;-60
2021/03/19 03:59:27;;;;;;;5.63;5.13;;;;;;;;;;2085024;28;20664;-60
2021/03/19 04:00:28;;;;;;;6.33;5.83;;;;;;;;;;2089687;28;20179;-60
2021/03/19 04:01:28;;;;;;;9.30;6.13;;;;;;;;;;2091623;28;20179;-61
2021/03/19 04:02:28;;;;;;;6.60;5.57;;;;;;;;;;2093013;28;20211;-59
2021/03/19 04:03:29;;;;;;;6.00;5.40;;;;;;;;;;2091129;28;20175;-62
2021/03/19 04:04:29;;;;;;;5.80;5.30;;;;;;;;;;2086324;28;20581;-61
2021/03/19 04:05:32;;;;;;;6.63;5.60;;;;;;;;;;2090541;28;20217;-60
2021/03/19 04:06:32;;;;;;;7.20;5.73;;;;;;;;;;2093803;28;20198;-60
2021/03/19 04:07:32;;;;;;;6.30;5.70;;;;;;;;;;2092019;28;20478;-60
2021/03/19 04:08:33;;;;;;;6.60;6.00;;;;;;;;;;2094544;28;20228;-59
2021/03/19 04:09:33;;;;;;;6.17;5.67;;;;;;;;;;2089193;28;20179;-63
2021/03/19 04:10:34;;;;;;;6.30;5.90;;;;;;;;;;2085629;28;20180;-61
2021/03/19 04:11:34;;;;;;;6.50;5.87;;;;;;;;;;2084577;28;20656;-60
2021/03/19 04:12:34;;;;;;;6.97;6.47;;;;;;;;;;2078273;28;20255;-57
2021/03/19 04:13:35;;;;;;;6.53;5.90;;;;;;;;;;2080263;28;20180;-60
2021/03/19 04:14:35;;;;;;;7.73;6.93;;;;;;;;;;2091728;28;20571;-62
2021/03/19 04:15:36;;;;;;;7.13;6.37;;;;;;;;;;2096276;28;20419;-59
2021/03/19 04:16:36;;;;;;;8.40;6.60;;;;;;;;;;2086149;28;20629;-61
2021/03/19 04:17:36;;;;;;;6.90;6.30;;;;;;;;;;2086902;28;20191;-60
2021/03/19 04:18:37;;;;;;;6.37;5.97;;;;;;;;;;2094991;28;20278;-60
2021/03/19 04:19:37;;;;;;;7.10;6.40;;;;;;;;;;2089921;28;20201;-60
2021/03/19 04:20:38;;;;;;;8.07;7.43;;;;;;;;;;2089740;28;20555;-62
2021/03/19 04:21:39;;;;;;;6.53;5.90;;;;;;;;;;2094130;28;20683;-60
2021/03/19 04:22:39;;;;;;;7.63;6.20;;;;;;;;;;2091992;28;20482;-60
2021/03/19 04:23:41;;;;;;;7.97;7.17;;;;;;;;;;2094122;28;20547;-60
2021/03/19 04:24:41;;;;;;;6.80;6.00;;;;;;;;;;2091529;28;20262;-60
2021/03/19 04:25:41;;;;;;;8.03;6.43;;;;;;;;;;2093150;28;20420;-59
2021/03/19 04:26:42;;;;;;;6.73;6.13;;;;;;;;;;2090979;28;20225;-59
2021/03/19 04:27:46;;;;;;;8.33;5.77;;;;;;;;;;2093218;28;20211;-58
2021/03/19 04:28:46;;;;;;;7.10;6.40;;;;;;;;;;2092034;28;20179;-61
2021/03/19 04:29:47;;;;;;;6.80;6.27;;;;;;;;;;2086586;28;20516;-64
2021/03/19 04:30:47;;;;;;;6.50;6.03;;;;;;;;;;2079823;28;20494;-60
2021/03/19 04:31:48;;;;;;;7.23;6.10;;;;;;;;;;2093901;28;20205;-60
2021/03/19 04:32:48;;;;;;;6.47;5.83;;;;;;;;;;2090186;28;20188;-60
2021/03/19 04:33:49;;;;;;;6.63;6.00;;;;;;;;;;2096367;28;20178;-62
2021/03/19 04:34:49;;;;;;;7.03;6.20;;;;;;;;;;2087966;28;20716;-58
2021/03/19 04:35:59;;;;;;;7.17;6.57;;;;;;;;;;2094676;28;20175;-58
2021/03/19 04:37:00;;;;;;;6.47;5.97;;;;;;;;;;2085394;28;20191;-57
2021/03/19 04:38:03;;;;;;;7.17;6.50;;;;;;;;;;2089530;28;20417;-59
2021/03/19 04:39:05;;;;;;;8.43;5.97;;;;;;;;;;2085375;28;20180;-62
2021/03/19 04:40:06;;;;;;;6.27;5.77;;;;;;;;;;2095918;28;20490;-58
2021/03/19 04:41:08;;;;;;;8.57;6.20;;;;;;;;;;2089198;28;20417;-59
2021/03/19 04:42:10;;;;;;;6.40;5.90;;;;;;;;;;2095155;28;20443;-61
2021/03/19 04:43:11;;;;;;;6.83;6.23;;;;;;;;;;2098432;28;20455;-62
2021/03/19 04:44:12;;;;;;;6.90;6.30;;;;;;;;;;2102930;28;20766;-62
2021/03/19 04:45:12;;;;;;;6.97;6.30;;;;;;;;;;2090862;28;20683;-60
2021/03/19 04:46:12;;;;;;;6.63;6.03;;;;;;;;;;2096545;28;20162;-56
2021/03/19 04:47:13;;;;;;;7.70;6.90;;;;;;;;;;2095574;28;20167;-60
2021/03/19 04:48:13;;;;;;;7.10;6.57;;;;;;;;;;2089176;28;20190;-61
2021/03/19 04:49:14;;;;;;;6.87;6.27;;;;;;;;;;2089425;28;20606;-61
2021/03/19 04:50:15;;;;;;;6.50;5.90;;;;;;;;;;2090812;28;20176;-62
2021/03/19 04:51:16;;;;;;;8.27;6.13;;;;;;;;;;2094561;28;20193;-62
2021/03/19 04:52:16;;;;;;;6.93;6.23;;;;;;;;;;2089267;28;20487;-59
2021/03/19 04:53:17;;;;;;;8.60;5.97;;;;;;;;;;2091102;28;20556;-60
2021/03/19 04:54:17;;;;;;;6.30;5.80;;;;;;;;;;2090865;28;20209;-60
2021/03/19 04:55:17;;;;;;;6.90;6.30;;;;;;;;;;2087094;28;20176;-60
2021/03/19 04:56:18;;;;;;;7.30;6.70;;;;;;;;;;2094225;28;20171;-57
2021/03/19 04:57:18;;;;;;;7.57;6.70;;;;;;;;;;2093704;28;20294;-63
2021/03/19 04:58:18;;;;;;;6.40;5.80;;;;;;;;;;2092342;28;20179;-60
2021/03/19 04:59:18;;;;;;;7.17;6.60;;;;;;;;;;2089937;28;20593;-60
2021/03/19 05:00:19;;;;;;;6.67;6.07;;;;;;;;;;2093329;28;20197;-61
2021/03/19 05:01:20;;;;;;;8.03;7.33;;;;;;;;;;2090025;28;20185;-58
2021/03/19 05:02:30;;;;;;;6.50;6.00;;;;;;;;;;2096025;28;20244;-63
2021/03/19 05:03:32;;;;;;;6.43;5.90;;;;;;;;;;2088868;28;20226;-60
2021/03/19 05:04:32;;;;;;;7.10;6.50;;;;;;;;;;2089404;28;20439;-60
2021/03/19 05:05:33;;;;;;;7.13;6.63;;;;;;;;;;2088634;28;20776;-64
2021/03/19 05:06:33;;;;;;;7.27;6.63;;;;;;;;;;2087461;28;20204;-60
2021/03/19 05:07:34;;;;;;;6.80;6.13;;;;;;;;;;2091150;28;20946;-60
2021/03/19 05:08:34;;;;;;;7.33;6.70;;;;;;;;;;2092014;28;20171;-59
2021/03/19 05:09:34;;;;;;;6.87;6.33;;;;;;;;;;2089333;28;20663;-59
2021/03/19 05:10:36;;;;;;;7.73;7.00;;;;;;;;;;2093969;28;20253;-61
2021/03/19 05:11:37;;;;;;;8.03;6.63;;;;;;;;;;2091094;28;20215;-57
2021/03/19 05:12:37;;;;;;;7.07;6.47;;;;;;;;;;2090540;28;20960;-62
2021/03/19 05:13:37;;;;;;;8.37;6.70;;;;;;;;;;2085596;28;20642;-60
2021/03/19 05:14:37;;;;;;;7.87;7.10;;;;;;;;;;2089466;28;20188;-58
2021/03/19 05:15:38;;;;;;;7.40;6.80;;;;;;;;;;2087643;28;20172;-58
2021/03/19 05:16:39;;;;;;;8.17;7.37;;;;;;;;;;2089587;28;20210;-59
2021/03/19 05:17:39;;;;;;;7.90;7.20;;;;;;;;;;2090009;28;20546;-59
2021/03/19 05:18:39;;;;;;;7.23;6.63;;;;;;;;;;2091101;28;20175;-60
2021/03/19 05:19:39;;;;;;;7.13;6.57;;;;;;;;;;2086956;28;20176;-61
2021/03/19 05:20:40;;;;;;;8.57;7.03;;;;;;;;;;2093452;28;20537;-62
2021/03/19 05:21:40;;;;;;;8.07;7.37;;;;;;;;;;2091271;28;20252;-60
2021/03/19 05:22:40;;;;;;;8.60;7.80;;;;;;;;;;2096194;28;20226;-60
2021/03/19 05:23:41;;;;;;;9.57;8.67;;;;;;;;;;2092802;28;20168;-60
2021/03/19 05:24:41;;;;;;;9.63;8.60;;;;;;;;;;2096951;28;20264;-59
2021/03/19 05:25:41;;;;;;;8.40;7.60;;;;;;;;;;2092518;28;20176;-60
2021/03/19 05:26:41;;;;;;;7.77;7.20;;;;;;;;;;2096166;28;20183;-60
2021/03/19 05:27:42;;;;;;;8.80;8.00;;;;;;;;;;2092515;28;20175;-63
2021/03/19 05:28:42;;;;;;;10.77;7.87;;;;;;;;;;2097351;28;20187;-58
2021/03/19 05:29:43;;;;;;;8.90;8.10;;;;;;;;;;2095414;28;20179;-60
2021/03/19 05:30:44;;;;;;;8.23;7.50;;;;;;;;;;2091534;28;20180;-62
2021/03/19 05:31:44;;;;;;;7.87;7.07;;;;;;;;;;2096220;28;20628;-60
2021/03/19 05:32:44;;;;;;;8.27;7.47;;;;;;;;;;2092539;28;20659;-62
2021/03/19 05:33:49;;;;;;;8.47;7.77;;;;;;;;;;2096810;28;20189;-59
2021/03/19 05:34:49;;;;;;;7.63;6.97;;;;;;;;;;2090368;28;20662;-60
2021/03/19 05:35:49;;;;;;;7.40;6.67;;;;;;;;;;2097115;28;20431;-60
2021/03/19 05:36:50;;;;;;;7.67;7.07;;;;;;;;;;2090278;28;20226;-62
2021/03/19 05:37:51;;;;;;;8.10;7.40;;;;;;;;;;2098204;28;20182;-60
2021/03/19 05:38:51;;;;;;;7.63;6.90;;;;;;;;;;2090865;28;20179;-62
2021/03/19 05:39:52;;;;;;;8.93;7.60;;;;;;;;;;2097101;28;20914;-60
2021/03/19 05:40:55;;;;;;;9.03;7.87;;;;;;;;;;2098132;28;20185;-60
2021/03/19 05:41:56;;;;;;;7.80;7.20;;;;;;;;;;2089558;28;20168;-59
2021/03/19 05:43:13;;;;;;;7.77;7.07;;;;;;;;;;2083294;28;20918;-59
2021/03/19 05:44:18;;;;;;;7.50;6.80;;;;;;;;;;2082783;28;20164;-57
2021/03/19 05:45:22;;;;;;;8.77;7.80;;;;;;;;;;2090904;28;20936;-60
2021/03/19 05:46:26;;;;;;;7.70;7.10;;;;;;;;;;2090552;28;20915;-60
2021/03/19 05:47:26;;;;;;;9.30;7.40;;;;;;;;;;2081814;28;20429;-58
2021/03/19 05:48:31;;;;;;;15.80;8.37;;;;;;;;;;2078629;28;20830;-57
2021/03/19 05:49:32;;;;;;;9.37;8.27;;;;;;;;;;2094398;28;20680;-63
2021/03/19 05:50:34;;;;;;;8.63;7.87;;;;;;;;;;2095507;28;20413;-62
2021/03/19 05:51:42;;;;;;;8.73;7.83;;;;;;;;;;2096579;28;20861;-59
2021/03/19 05:52:42;;;;;;;7.27;6.60;;;;;;;;;;2099644;28;20427;-63
2021/03/19 05:53:44;;;;;;;7.50;6.87;;;;;;;;;;2096701;28;20803;-59
2021/03/19 05:54:45;;;;;;;8.37;7.57;;;;;;;;;;2093583;28;20183;-62
2021/03/19 05:55:45;;;;;;;8.23;7.40;;;;;;;;;;2096533;28;20950;-60
2021/03/19 05:57:48;;;;;;;8.70;7.80;;;;;;;;;;2072091;28;20204;-58
2021/03/19 05:58:48;;;;;;;8.43;7.73;;;;;;;;;;2080834;28;20417;-58
2021/03/19 05:59:50;;;;;;;8.77;7.87;;;;;;;;;;2080115;28;20263;-60
2021/03/19 06:00:54;;;;;;;7.77;6.97;;;;;;;;;;2081886;28;20191;-60
2021/03/19 06:01:54;;;;;;;8.93;8.13;;;;;;;;;;2084202;28;20409;-61
2021/03/19 06:02:55;;;;;;;8.50;7.80;;;;;;;;;;2087545;28;21184;-60
2021/03/19 06:03:56;;;;;;;8.00;7.17;;;;;;;;;;2088080;28;20563;-58
2021/03/19 06:04:59;;;;;;;9.00;8.20;;;;;;;;;;2083371;28;20623;-60
2021/03/19 06:06:02;;;;;;;8.67;7.77;;;;;;;;;;2075827;28;20421;-59
2021/03/19 06:07:03;;;;;;;8.40;7.70;;;;;;;;;;2077357;28;20418;-60
2021/03/19 06:08:07;;;;;;;9.00;8.20;;;;;;;;;;2067688;28;20422;-60
2021/03/19 06:09:21;;;;;;;8.63;7.83;;;;;;;;;;2081608;28;20459;-59
2021/03/19 06:10:24;;;;;;;8.67;7.90;;;;;;;;;;2070994;28;20429;-59
2021/03/19 06:11:25;;;;;;;7.20;6.60;;;;;;;;;;2074988;28;20547;-59
2021/03/19 06:12:26;;;;;;;8.80;8.00;;;;;;;;;;2071900;28;20516;-60
2021/03/19 06:13:38;;;;;;;7.80;7.07;;;;;;;;;;2071098;28;20809;-56
2021/03/19 06:14:48;;;;;;;7.60;6.93;;;;;;;;;;2064417;28;20587;-57